Time;durP1;ratioP1;P1;durP2;ratioP2;P2;SDS_P1;SDS_P2;PMS_P1;PMS_P2;Temp;Humidity;BMP_temperature;BMP_pressure;BME280_temperature;BME280_humidity;BME280_pressure;Samples;Min_cycle;Max_cycle;Signal;HPM_P1;HPM_P2
2023/09/23 00:00:23;;;;;;;27.65;9.70;;;20.50;99.90;;;;;;6241268;23;20040;-78
2023/09/23 00:02:51;;;;;;;32.50;10.95;;;20.40;99.90;;;;;;6213763;23;20026;-79
2023/09/23 00:05:20;;;;;;;25.98;10.30;;;20.40;99.90;;;;;;6245892;23;20050;-79
2023/09/23 00:07:49;;;;;;;34.40;10.38;;;20.40;99.90;;;;;;6248338;23;20095;-79
2023/09/23 00:10:16;;;;;;;32.55;10.73;;;20.40;99.90;;;;;;6250982;23;20016;-80
2023/09/23 00:12:45;;;;;;;29.70;9.45;;;20.30;99.90;;;;;;6258157;23;20032;-79
2023/09/23 00:15:13;;;;;;;24.02;9.27;;;20.40;99.90;;;;;;6259373;23;20095;-78
2023/09/23 00:17:45;;;;;;;33.05;10.90;;;20.40;99.90;;;;;;6219814;23;20356;-78
2023/09/23 00:20:17;;;;;;;36.95;11.80;;;20.40;99.90;;;;;;6248649;23;20024;-78
2023/09/23 00:22:46;;;;;;;35.88;10.88;;;20.40;99.90;;;;;;6250220;23;20012;-78
2023/09/23 00:25:16;;;;;;;25.33;10.63;;;20.40;99.90;;;;;;6216646;23;20371;-80
2023/09/23 00:27:45;;;;;;;27.50;10.05;;;20.40;99.90;;;;;;6253536;23;20039;-78
2023/09/23 00:30:13;;;;;;;30.65;10.70;;;20.40;99.90;;;;;;6243980;23;20627;-80
2023/09/23 00:32:41;;;;;;;27.77;10.02;;;20.40;99.90;;;;;;6215964;23;20020;-80
2023/09/23 00:35:12;;;;;;;37.08;11.30;;;20.30;99.90;;;;;;6250411;23;20016;-78
2023/09/23 00:37:40;;;;;;;30.05;10.80;;;20.40;99.90;;;;;;6216831;23;20040;-76
2023/09/23 00:40:17;;;;;;;32.75;11.85;;;20.40;99.90;;;;;;6252750;23;20432;-79
2023/09/23 00:42:47;;;;;;;29.80;9.48;;;20.30;99.90;;;;;;6252179;23;20024;-78
2023/09/23 00:45:17;;;;;;;33.50;10.20;;;20.20;99.90;;;;;;6216000;23;20024;-78
2023/09/23 00:47:46;;;;;;;27.90;10.63;;;20.10;99.90;;;;;;6214627;23;20024;-79
2023/09/23 00:50:19;;;;;;;29.35;10.10;;;20.10;99.90;;;;;;6215432;23;20078;-78
2023/09/23 00:52:49;;;;;;;30.42;10.30;;;20.20;99.90;;;;;;6215001;23;20016;-77
2023/09/23 00:55:18;;;;;;;31.80;11.43;;;20.20;99.90;;;;;;6215161;23;20071;-78
2023/09/23 00:57:48;;;;;;;29.67;10.77;;;20.20;99.90;;;;;;6252700;23;20026;-78
2023/09/23 01:00:24;;;;;;;24.45;10.00;;;20.20;99.90;;;;;;6243259;23;20028;-78
2023/09/23 01:02:52;;;;;;;;;;;20.20;99.90;;;;;;6244826;23;20012;-77
2023/09/23 01:05:21;;;;;;;27.85;9.85;;;20.20;99.90;;;;;;6214710;23;19939;-78
2023/09/23 01:07:49;;;;;;;28.65;10.18;;;20.20;99.90;;;;;;6248884;23;20027;-78
2023/09/23 01:10:18;;;;;;;30.52;10.75;;;20.20;99.90;;;;;;6251069;23;20020;-78
2023/09/23 01:12:47;;;;;;;34.58;10.80;;;20.20;99.90;;;;;;6215763;23;20468;-76
2023/09/23 01:15:17;;;;;;;32.88;9.20;;;20.20;99.90;;;;;;6215131;23;20036;-77
2023/09/23 01:17:48;;;;;;;31.42;10.15;;;20.20;99.90;;;;;;6245117;23;20030;-77
2023/09/23 01:20:17;;;;;;;30.48;9.60;;;20.10;99.90;;;;;;6247179;23;20032;-78
2023/09/23 01:22:47;;;;;;;38.38;10.88;;;20.10;99.90;;;;;;6213833;23;20527;-77
2023/09/23 01:25:17;;;;;;;28.92;9.80;;;20.10;99.90;;;;;;6215023;23;20347;-78
2023/09/23 01:27:44;;;;;;;20.38;9.73;;;20.10;99.90;;;;;;6252345;23;20012;-79
2023/09/23 01:30:13;;;;;;;29.38;9.60;;;20.10;99.90;;;;;;6243623;23;20024;-77
2023/09/23 01:32:47;;;;;;;34.05;9.80;;;20.10;99.90;;;;;;6211257;23;20028;-77
2023/09/23 01:35:16;;;;;;;33.35;10.75;;;20.10;99.90;;;;;;6214854;23;20020;-78
2023/09/23 01:37:44;;;;;;;29.10;9.85;;;20.10;99.90;;;;;;6214701;23;20028;-77
2023/09/23 01:40:17;;;;;;;29.90;10.15;;;20.20;99.90;;;;;;6215015;23;20016;-78
2023/09/23 01:42:48;;;;;;;20.27;9.50;;;20.20;99.90;;;;;;6252066;23;20012;-77
2023/09/23 01:45:16;;;;;;;27.35;10.07;;;20.20;99.90;;;;;;6215314;23;20036;-78
2023/09/23 01:47:45;;;;;;;28.17;9.82;;;20.10;99.90;;;;;;6214097;23;20031;-78
2023/09/23 01:50:17;;;;;;;27.95;9.82;;;20.10;99.90;;;;;;6214081;23;20026;-78
2023/09/23 01:52:45;;;;;;;29.65;10.60;;;20.10;99.90;;;;;;6214729;23;20050;-78
2023/09/23 01:55:16;;;;;;;31.30;9.48;;;20.10;99.90;;;;;;6214531;23;20024;-78
2023/09/23 01:57:44;;;;;;;33.83;10.00;;;20.10;99.90;;;;;;6252372;23;20541;-78
2023/09/23 02:00:17;;;;;;;30.27;10.35;;;20.20;99.90;;;;;;6214076;23;20024;-77
2023/09/23 02:02:45;;;;;;;28.42;9.13;;;20.20;99.90;;;;;;6244216;23;20020;-79
2023/09/23 02:05:13;;;;;;;22.88;9.63;;;20.20;99.90;;;;;;6247267;23;20132;-79
2023/09/23 02:07:41;;;;;;;31.35;10.15;;;20.00;99.90;;;;;;6253123;23;20024;-79
2023/09/23 02:10:11;;;;;;;29.25;10.45;;;20.00;99.90;;;;;;6223013;23;20012;-79
2023/09/23 02:12:40;;;;;;;25.58;9.77;;;19.80;99.90;;;;;;6222901;23;20103;-77
2023/09/23 02:15:08;;;;;;;28.42;10.05;;;19.90;99.90;;;;;;6243812;23;20031;-77
2023/09/23 02:17:36;;;;;;;27.10;10.18;;;19.90;99.90;;;;;;6214195;23;20016;-78
2023/09/23 02:20:09;;;;;;;27.83;9.93;;;19.80;99.90;;;;;;6247850;23;20486;-78
2023/09/23 02:22:37;;;;;;;24.25;10.63;;;19.80;99.90;;;;;;6248592;23;20474;-78
2023/09/23 02:25:07;;;;;;;30.77;10.68;;;19.80;99.90;;;;;;6252731;23;20474;-77
2023/09/23 02:27:35;;;;;;;24.60;10.18;;;19.80;99.90;;;;;;6241715;23;20020;-79
2023/09/23 02:30:09;;;;;;;29.52;10.35;;;19.80;99.90;;;;;;6214372;23;20094;-76
2023/09/23 02:32:39;;;;;;;30.55;10.65;;;19.80;99.90;;;;;;6244601;23;20031;-78
2023/09/23 02:35:08;;;;;;;26.38;10.20;;;19.90;99.90;;;;;;6214142;23;20020;-76
2023/09/23 02:37:36;;;;;;;24.27;10.32;;;19.90;99.90;;;;;;6214656;23;20419;-79
2023/09/23 02:40:11;;;;;;;29.92;10.55;;;19.90;99.90;;;;;;6214650;23;20031;-77
2023/09/23 02:42:42;;;;;;;28.75;10.73;;;19.80;99.90;;;;;;6240963;23;20031;-79
2023/09/23 02:45:13;;;;;;;23.40;9.95;;;19.80;99.90;;;;;;6243228;23;20028;-78
2023/09/23 02:47:43;;;;;;;28.77;10.32;;;19.70;99.90;;;;;;6254397;23;20020;-80
2023/09/23 02:50:13;;;;;;;25.85;9.30;;;19.70;99.90;;;;;;6224124;23;20062;-78
2023/09/23 02:52:41;;;;;;;29.55;10.20;;;19.80;99.90;;;;;;6219211;23;20016;-79
2023/09/23 02:55:12;;;;;;;25.52;9.65;;;19.90;99.90;;;;;;6253471;23;20375;-77
2023/09/23 02:57:40;;;;;;;25.77;9.68;;;19.90;99.90;;;;;;6215696;23;20012;-77
2023/09/23 03:00:16;;;;;;;27.27;10.35;;;19.90;99.90;;;;;;6214551;23;20031;-80
2023/09/23 03:02:48;;;;;;;30.73;10.73;;;19.80;99.90;;;;;;6244421;23;20038;-79
2023/09/23 03:05:17;;;;;;;28.80;10.73;;;19.80;99.90;;;;;;6214757;23;20078;-79
2023/09/23 03:07:47;;;;;;;34.00;11.98;;;19.80;99.90;;;;;;6248475;23;20032;-78
2023/09/23 03:10:19;;;;;;;25.40;10.80;;;19.80;99.90;;;;;;6250651;23;20081;-77
2023/09/23 03:13:01;;;;;;;29.27;11.48;;;19.80;99.90;;;;;;6213911;23;20047;-79
2023/09/23 03:15:33;;;;;;;27.00;11.32;;;19.70;99.90;;;;;;6241415;23;20032;-79
2023/09/23 03:18:05;;;;;;;30.20;10.85;;;19.70;99.90;;;;;;6214092;23;20075;-80
2023/09/23 03:20:34;;;;;;;22.70;9.68;;;19.70;99.90;;;;;;6214198;23;20020;-79
2023/09/23 03:23:03;;;;;;;27.25;11.38;;;19.60;99.90;;;;;;6247244;23;20032;-77
2023/09/23 03:25:30;;;;;;;29.17;10.48;;;19.60;99.90;;;;;;6213953;23;20020;-78
2023/09/23 03:27:58;;;;;;;24.48;10.30;;;19.60;99.90;;;;;;6251882;23;20020;-78
2023/09/23 03:30:25;;;;;;;28.30;9.68;;;19.60;99.90;;;;;;6213818;23;20104;-79
2023/09/23 03:32:53;;;;;;;32.53;11.00;;;19.50;99.90;;;;;;6214070;23;20487;-79
2023/09/23 03:35:24;;;;;;;26.08;10.35;;;19.60;99.90;;;;;;6245386;23;20344;-80
2023/09/23 03:37:53;;;;;;;24.73;11.02;;;19.60;99.90;;;;;;6209483;23;20027;-78
2023/09/23 03:40:24;;;;;;;28.15;11.00;;;19.40;99.90;;;;;;6249885;23;20016;-77
2023/09/23 03:42:52;;;;;;;26.88;11.13;;;19.50;99.90;;;;;;6250760;23;20016;-78
2023/09/23 03:45:21;;;;;;;24.58;10.10;;;19.40;99.90;;;;;;6215831;23;20020;-77
2023/09/23 03:47:50;;;;;;;24.98;10.90;;;19.40;99.90;;;;;;6215246;23;20095;-79
2023/09/23 03:50:18;;;;;;;24.95;11.52;;;19.30;99.90;;;;;;6216196;23;20039;-77
2023/09/23 03:52:47;;;;;;;29.35;11.60;;;19.30;99.90;;;;;;6249693;23;20012;-78
2023/09/23 03:55:14;;;;;;;31.38;12.15;;;19.40;99.90;;;;;;6252449;23;20096;-77
2023/09/23 03:57:44;;;;;;;26.13;11.45;;;19.30;99.90;;;;;;6215686;23;20321;-78
2023/09/23 04:00:14;;;;;;;25.23;10.02;;;19.30;99.90;;;;;;6215383;23;20471;-78
2023/09/23 04:02:42;;;;;;;24.13;10.52;;;19.40;99.90;;;;;;6215033;23;20047;-78
2023/09/23 04:05:11;;;;;;;32.03;10.82;;;19.40;99.90;;;;;;6215415;23;20456;-77
2023/09/23 04:07:40;;;;;;;23.88;9.90;;;19.40;99.90;;;;;;6250645;23;20020;-78
2023/09/23 04:10:10;;;;;;;22.92;10.15;;;19.50;99.90;;;;;;6253344;23;20027;-80
2023/09/23 04:12:38;;;;;;;26.23;10.27;;;19.40;99.90;;;;;;6215666;23;20024;-79
2023/09/23 04:15:09;;;;;;;31.20;11.32;;;19.40;99.90;;;;;;6244129;23;20460;-77
2023/09/23 04:17:37;;;;;;;27.67;10.05;;;19.40;99.90;;;;;;6246587;23;20086;-79
2023/09/23 04:20:10;;;;;;;27.30;10.63;;;19.40;99.90;;;;;;6248738;23;20024;-79
2023/09/23 04:22:38;;;;;;;23.10;10.65;;;19.30;99.90;;;;;;6249272;23;20020;-80
2023/09/23 04:25:06;;;;;;;28.90;10.00;;;19.20;99.90;;;;;;6253326;23;20020;-77
2023/09/23 04:27:37;;;;;;;25.05;10.40;;;19.20;99.90;;;;;;6242601;23;20483;-78
2023/09/23 04:30:08;;;;;;;28.10;9.90;;;19.20;99.90;;;;;;6244372;23;20024;-80
2023/09/23 04:32:36;;;;;;;25.95;10.45;;;19.20;99.90;;;;;;6245343;23;20059;-79
2023/09/23 04:35:04;;;;;;;28.35;10.15;;;19.10;99.90;;;;;;6248324;23;20042;-78
2023/09/23 04:37:36;;;;;;;31.40;10.82;;;19.10;99.90;;;;;;6250738;23;20105;-78
2023/09/23 04:40:07;;;;;;;35.20;11.88;;;19.20;99.90;;;;;;6254031;23;20015;-76
2023/09/23 04:42:37;;;;;;;22.90;10.40;;;19.10;99.90;;;;;;6214341;23;20042;-78
2023/09/23 04:45:06;;;;;;;32.10;11.60;;;19.20;99.90;;;;;;6244095;23;20329;-78
2023/09/23 04:47:35;;;;;;;41.00;13.13;;;19.20;99.90;;;;;;6214992;23;20020;-79
2023/09/23 04:50:04;;;;;;;28.95;10.23;;;19.20;99.90;;;;;;6248103;23;20017;-79
2023/09/23 04:52:32;;;;;;;34.63;11.52;;;19.30;99.90;;;;;;6249655;23;20115;-78
2023/09/23 04:55:00;;;;;;;26.73;11.27;;;19.30;99.90;;;;;;6251965;23;20479;-79
2023/09/23 04:57:28;;;;;;;100.60;25.95;;;19.30;99.90;;;;;;6242381;23;20095;-78
2023/09/23 04:59:57;;;;;;;30.65;10.52;;;19.40;99.90;;;;;;6244434;23;20095;-79
2023/09/23 05:02:26;;;;;;;28.55;10.55;;;19.40;99.90;;;;;;6246018;23;20059;-76
2023/09/23 05:04:54;;;;;;;28.92;11.55;;;19.40;99.90;;;;;;6248884;23;20368;-77
2023/09/23 05:07:21;;;;;;;23.08;10.25;;;19.40;99.90;;;;;;6253784;23;20039;-78
2023/09/23 05:09:49;;;;;;;27.98;11.48;;;19.40;99.90;;;;;;6261172;23;20016;-79
2023/09/23 05:12:18;;;;;;;29.63;10.68;;;19.60;99.90;;;;;;6247398;23;20095;-78
2023/09/23 05:14:46;;;;;;;24.27;10.90;;;19.70;99.90;;;;;;6216961;23;20076;-78
2023/09/23 05:17:17;;;;;;;27.73;10.30;;;19.70;99.90;;;;;;6249992;23;20028;-78
2023/09/23 05:19:46;;;;;;;29.48;10.25;;;19.80;99.90;;;;;;6255688;23;20090;-80
2023/09/23 05:22:13;;;;;;;27.95;11.15;;;19.90;99.90;;;;;;6230246;23;20020;-80
2023/09/23 05:24:47;;;;;;;25.58;10.50;;;19.90;99.90;;;;;;6265119;23;20017;-80
2023/09/23 05:27:14;;;;;;;33.42;11.77;;;19.90;99.90;;;;;;6243559;23;20024;-79
2023/09/23 05:29:43;;;;;;;32.08;13.02;;;19.90;99.90;;;;;;6246575;23;20021;-77
2023/09/23 05:32:12;;;;;;;27.58;10.73;;;20.00;99.90;;;;;;6248067;23;20036;-77
2023/09/23 05:34:42;;;;;;;30.00;10.55;;;20.10;99.90;;;;;;6250136;23;20127;-80
2023/09/23 05:37:12;;;;;;;29.08;10.60;;;20.10;99.90;;;;;;6251665;23;20641;-80
2023/09/23 05:39:44;;;;;;;30.90;11.20;;;20.40;99.90;;;;;;6255022;23;20032;-80
2023/09/23 05:42:15;;;;;;;29.33;11.63;;;20.50;99.90;;;;;;6216879;23;20467;-79
2023/09/23 05:44:44;;;;;;;30.70;11.35;;;20.60;99.90;;;;;;6216774;23;20099;-80
2023/09/23 05:47:11;;;;;;;31.70;10.52;;;20.80;99.90;;;;;;6214794;23;20516;-80
2023/09/23 05:49:40;;;;;;;30.75;10.13;;;21.00;99.90;;;;;;6250302;23;20027;-80
2023/09/23 05:52:08;;;;;;;27.48;8.35;;;21.40;99.90;;;;;;6253767;23;20012;-80
2023/09/23 05:54:36;;;;;;;21.08;7.38;;;21.70;99.90;;;;;;6217129;23;20027;-81
2023/09/23 05:57:03;;;;;;;20.67;7.50;;;22.00;99.90;;;;;;6245667;23;20584;-81
2023/09/23 05:59:31;;;;;;;17.95;5.30;;;22.10;99.90;;;;;;6248744;23;20028;-80
2023/09/23 06:01:59;;;;;;;18.63;5.53;;;22.30;99.90;;;;;;6216188;23;20020;-80
2023/09/23 06:04:26;;;;;;;14.00;4.70;;;22.40;99.90;;;;;;6252530;23;20087;-80
2023/09/23 06:06:56;;;;;;;15.43;4.78;;;22.50;99.90;;;;;;6217872;23;20081;-80
2023/09/23 06:09:24;;;;;;;10.02;4.45;;;22.60;99.90;;;;;;6214743;23;20016;-78
2023/09/23 06:11:51;;;;;;;18.42;4.45;;;22.80;99.90;;;;;;6214624;23;20082;-78
2023/09/23 06:14:19;;;;;;;10.43;3.80;;;23.00;99.90;;;;;;6214339;23;20103;-78
2023/09/23 06:16:47;;;;;;;12.10;3.10;;;23.00;99.90;;;;;;6214853;23;20456;-79
2023/09/23 06:19:15;;;;;;;9.70;4.43;;;23.10;99.90;;;;;;6250602;23;20134;-76
2023/09/23 06:21:42;;;;;;;9.52;4.05;;;23.10;99.90;;;;;;6253033;23;20043;-79
2023/09/23 06:24:11;;;;;;;12.77;4.40;;;23.20;99.90;;;;;;6215354;23;20509;-79
2023/09/23 06:26:39;;;;;;;11.10;3.47;;;23.20;99.90;;;;;;6245836;23;20098;-77
2023/09/23 06:29:06;;;;;;;13.40;5.28;;;23.20;99.90;;;;;;6247283;23;20104;-79
2023/09/23 06:31:34;;;;;;;11.23;3.95;;;23.30;99.90;;;;;;6249236;23;20519;-79
2023/09/23 06:34:01;;;;;;;13.40;8.30;;;23.40;99.90;;;;;;6251596;23;20074;-77
2023/09/23 06:36:29;;;;;;;8.10;3.00;;;23.50;99.90;;;;;;6213914;23;20077;-77
2023/09/23 06:38:56;;;;;;;12.88;4.32;;;23.30;99.90;;;;;;6244232;23;20072;-79
2023/09/23 06:41:25;;;;;;;9.25;3.97;;;23.40;99.90;;;;;;6248602;23;20023;-80
2023/09/23 06:43:53;;;;;;;8.65;3.40;;;23.50;99.90;;;;;;6252049;23;20024;-80
2023/09/23 06:46:21;;;;;;;12.65;4.25;;;23.50;99.90;;;;;;6251308;23;20016;-79
2023/09/23 06:48:48;;;;;;;17.77;4.20;;;23.50;99.90;;;;;;6252145;23;20066;-79
2023/09/23 06:51:16;;;;;;;9.20;3.42;;;23.50;99.90;;;;;;6241969;23;20399;-79
2023/09/23 06:53:47;;;;;;;8.38;3.28;;;23.30;99.90;;;;;;6243591;23;20074;-78
2023/09/23 06:56:15;;;;;;;9.13;4.30;;;23.40;99.90;;;;;;6246195;23;20503;-80
2023/09/23 06:58:44;;;;;;;18.95;7.03;;;23.30;99.90;;;;;;6248558;23;20499;-80
2023/09/23 07:01:12;;;;;;;11.57;3.33;;;23.30;99.90;;;;;;6251179;23;20016;-79
2023/09/23 07:03:39;;;;;;;11.15;3.65;;;23.30;99.90;;;;;;6251457;23;20019;-80
2023/09/23 07:06:07;;;;;;;14.35;8.30;;;23.40;99.90;;;;;;6242255;23;20100;-79
2023/09/23 07:08:34;;;;;;;20.63;11.13;;;23.40;99.90;;;;;;6213829;23;20626;-79
2023/09/23 07:11:03;;;;;;;11.15;4.90;;;23.30;99.90;;;;;;6240810;23;20029;-79
2023/09/23 07:13:31;;;;;;;12.82;7.05;;;23.30;99.90;;;;;;6248790;23;20020;-79
2023/09/23 07:16:00;;;;;;;12.68;3.80;;;23.20;99.90;;;;;;6253061;23;20417;-78
2023/09/23 07:18:28;;;;;;;11.02;4.30;;;23.20;99.90;;;;;;6242503;23;20024;-79
2023/09/23 07:20:57;;;;;;;9.82;4.53;;;23.20;99.90;;;;;;6245490;22;20099;-78
2023/09/23 07:23:25;;;;;;;9.95;3.58;;;23.30;99.90;;;;;;6247496;23;20054;-78
2023/09/23 07:25:53;;;;;;;10.55;4.00;;;23.20;99.90;;;;;;6216918;23;20020;-79
2023/09/23 07:28:21;;;;;;;12.65;3.38;;;23.10;99.90;;;;;;6252879;23;20377;-77
2023/09/23 07:30:48;;;;;;;14.20;8.75;;;22.90;99.90;;;;;;6212904;22;20020;-83
2023/09/23 07:33:17;;;;;;;15.13;7.95;;;22.90;99.90;;;;;;6214971;23;20068;-83
2023/09/23 07:35:48;;;;;;;14.32;4.60;;;23.00;99.90;;;;;;6216990;23;20063;-83
2023/09/23 07:38:15;;;;;;;8.65;4.63;;;23.00;99.90;;;;;;6249253;23;20048;-82
2023/09/23 07:40:54;;;;;;;7.50;3.88;;;23.10;99.90;;;;;;6237693;23;20420;-84
2023/09/23 07:43:21;;;;;;;9.48;4.07;;;23.10;99.90;;;;;;6269702;22;20024;-82
2023/09/23 07:45:55;;;;;;;7.35;3.47;;;23.20;99.90;;;;;;6221774;23;20074;-80
2023/09/23 07:48:24;;;;;;;10.15;3.80;;;23.30;99.90;;;;;;6206041;23;20024;-83
2023/09/23 07:50:54;;;;;;;14.32;8.07;;;23.40;99.90;;;;;;6229806;23;20048;-84
2023/09/23 07:53:22;;;;;;;11.45;4.60;;;23.40;99.90;;;;;;6220166;23;20024;-83
2023/09/23 07:58:34;;;;;;;16.63;5.72;;;23.70;99.90;;;;;;6220099;23;20072;-82
2023/09/23 08:01:20;;;;;;;12.02;5.20;;;24.00;99.90;;;;;;6262122;23;20027;-84
2023/09/23 08:04:23;;;;;;;19.13;7.40;;;24.10;99.90;;;;;;6146828;23;20027;-81
2023/09/23 12:20:39;;;;;;;8.15;3.38;;;26.60;99.90;;;;;;6199360;22;20496;-88
2023/09/23 12:26:44;;;;;;;9.65;3.92;;;26.50;99.90;;;;;;6133464;23;20081;-88
2023/09/23 12:36:17;;;;;;;8.40;3.35;;;26.60;99.90;;;;;;6206959;23;20023;-88
2023/09/23 12:39:34;;;;;;;7.43;3.17;;;26.40;99.90;;;;;;6215105;23;20087;-88
2023/09/23 13:31:09;;;;;;;0.68;0.68;;;20.00;99.90;;;;;;6174998;22;20087;-80
2023/09/23 14:16:42;;;;;;;;;;;18.10;99.90;;;;;;6107143;23;20441;-85
2023/09/23 14:24:10;;;;;;;;;;;18.10;99.90;;;;;;6172719;23;20021;-84
2023/09/23 14:26:52;;;;;;;;;;;17.90;99.90;;;;;;6087858;23;20024;-84
2023/09/23 14:40:09;;;;;;;;;;;18.30;99.90;;;;;;5993654;23;20454;-85
2023/09/23 14:49:23;;;;;;;;;;;18.20;99.90;;;;;;5885261;24;20038;-83
2023/09/23 14:51:51;;;;;;;;;;;18.10;99.90;;;;;;5923208;24;20051;-83
2023/09/23 14:54:24;;;;;;;;;;;18.10;99.90;;;;;;5922656;24;20023;-83
2023/09/23 14:56:54;;;;;;;;;;;18.10;99.90;;;;;;5910387;24;20424;-86
2023/09/23 14:59:37;;;;;;;;;;;18.20;99.90;;;;;;5887612;24;20023;-84
2023/09/23 15:02:16;;;;;;;;;;;18.10;99.90;;;;;;5902567;24;20484;-85
2023/09/23 15:05:24;;;;;;;;;;;18.00;99.90;;;;;;5905846;24;20026;-85
2023/09/23 15:08:14;;;;;;;;;;;17.90;99.90;;;;;;5924767;24;20117;-84
2023/09/23 15:16:53;;;;;;;;;;;18.00;99.90;;;;;;6083166;23;20021;-84
2023/09/23 15:23:18;;;;;;;;;;;17.90;99.90;;;;;;6070187;23;20036;-85
2023/09/23 15:38:38;;;;;;;;;;;17.90;99.90;;;;;;6071335;23;20462;-82
2023/09/23 15:41:13;;;;;;;;;;;17.80;99.90;;;;;;6091631;23;20068;-83
2023/09/23 15:44:05;;;;;;;;;;;17.80;99.90;;;;;;6101127;23;20019;-77
2023/09/23 16:11:38;;;;;;;;;;;18.00;99.90;;;;;;5967277;23;20022;-83
2023/09/23 16:41:30;;;;;;;;;;;17.70;99.90;;;;;;5019683;28;20140;-79
2023/09/23 16:51:04;;;;;;;;;;;17.90;99.90;;;;;;5015576;28;20022;-82
2023/09/23 17:04:38;;;;;;;;;;;17.60;99.90;;;;;;5031356;28;20049;-81
2023/09/23 17:11:09;;;;;;;;;;;;;;;;;;;;;
2023/09/23 17:17:34;;;;;;;;;;;17.60;99.90;;;;;;4919878;29;20015;-84
2023/09/23 17:20:08;;;;;;;;;;;17.50;99.90;;;;;;4918518;28;20027;-86
2023/09/23 17:22:52;;;;;;;;;;;17.50;99.90;;;;;;5050319;28;20026;-81
2023/09/23 17:28:49;;;;;;;;;;;17.60;99.90;;;;;;5044481;28;20482;-82
2023/09/23 17:31:47;;;;;;;;;;;17.40;99.90;;;;;;5046895;28;20033;-82
2023/09/23 17:34:15;;;;;;;;;;;17.40;99.90;;;;;;5030619;28;20068;-82
2023/09/23 17:36:58;;;;;;;;;;;17.50;99.90;;;;;;5048619;28;20072;-81
2023/09/23 17:39:52;;;;;;;;;;;17.40;99.90;;;;;;5025242;28;20503;-82
2023/09/23 17:42:30;;;;;;;;;;;17.40;99.90;;;;;;4986915;28;20029;-81
2023/09/23 17:45:09;;;;;;;;;;;17.40;99.90;;;;;;5034116;28;20022;-84
2023/09/23 18:04:19;;;;;;;;;;;17.30;99.90;;;;;;3677126;26;20038;-84
2023/09/23 19:06:29;;;;;;;;;;;16.20;99.90;;;;;;4796483;29;20044;-84
2023/09/23 19:08:58;;;;;;;;;;;16.20;99.90;;;;;;4817326;29;20048;-86
2023/09/23 19:11:32;;;;;;;;;;;16.20;99.90;;;;;;4841700;29;20037;-83
2023/09/23 19:14:13;;;;;;;;;;;;;;;;;;;;;
2023/09/23 19:16:42;;;;;;;;;;;16.30;99.90;;;;;;4885244;29;20025;-84
2023/09/23 19:19:13;;;;;;;;;;;16.30;99.90;;;;;;4896986;29;20059;-83
2023/09/23 19:21:44;;;;;;;;;;;16.20;99.90;;;;;;4892462;29;20020;-84
2023/09/23 19:24:14;;;;;;;;;;;16.30;99.90;;;;;;4924843;28;20031;-86
2023/09/23 19:26:41;;;;;;;;;;;16.40;99.90;;;;;;4966738;28;20057;-85
2023/09/23 19:29:09;;;;;;;;;;;16.50;99.90;;;;;;4963214;28;20027;-83
2023/09/23 19:31:47;;;;;;;;;;;16.60;99.90;;;;;;4967516;28;20079;-84
2023/09/23 19:34:14;;;;;;;;;;;16.60;99.90;;;;;;4985818;28;20013;-83
2023/09/23 19:36:45;;;;;;;;;;;16.60;99.90;;;;;;4976342;28;20019;-82
2023/09/23 19:39:21;;;;;;;;;;;16.60;99.90;;;;;;4989807;28;20030;-83
2023/09/23 19:41:49;;;;;;;;;;;16.60;99.90;;;;;;4974118;28;20010;-84
2023/09/23 19:44:23;;;;;;;;;;;16.50;99.90;;;;;;4973104;28;20031;-84
2023/09/23 19:47:09;;;;;;;;;;;;;;;;;;;;;
2023/09/23 19:52:39;;;;;;;;;;;16.50;99.90;;;;;;4938649;28;20038;-83
2023/09/23 19:55:10;;;;;;;;;;;16.30;99.90;;;;;;4982600;28;20018;-81
2023/09/23 20:00:19;;;;;;;;;;;16.30;99.90;;;;;;4957918;28;20093;-83
2023/09/23 20:03:17;;;;;;;;;;;16.30;99.90;;;;;;4954370;28;20035;-82
2023/09/23 20:22:48;;;;;;;;;;;;;;;;;;;;;
2023/09/23 20:25:35;;;;;;;;;;;16.40;99.90;;;;;;4982859;28;20021;-84
2023/09/23 22:10:42;;;;;;;;;;;15.90;99.90;;;;;;6128854;23;20028;-85
2023/09/23 22:17:25;;;;;;;;;;;15.80;99.90;;;;;;6202685;23;20025;-82
2023/09/23 22:30:45;;;;;;;;;;;15.80;99.90;;;;;;6066557;23;20033;-84
2023/09/23 22:40:16;;;;;;;;;;;15.50;99.90;;;;;;6102837;23;20021;-83
2023/09/23 22:43:31;;;;;;;;;;;15.50;99.90;;;;;;6162591;23;20020;-83
2023/09/23 23:17:16;;;;;;;;;;;15.20;99.90;;;;;;6067162;23;20024;-84
2023/09/23 23:23:36;;;;;;;;;;;15.20;99.90;;;;;;6127873;23;20027;-83
2023/09/23 23:26:48;;;;;;;;;;;15.00;99.90;;;;;;6109020;23;20021;-84
